sensor_id;sensor_type;location;lat;lon;timestamp;temperature;humidity
68217;DHT22;55037;52.354;4.992;2023-06-19T00:02:14;25.50;38.80
68217;DHT22;55037;52.354;4.992;2023-06-19T00:04:42;25.50;38.60
68217;DHT22;55037;52.354;4.992;2023-06-19T00:07:09;25.50;38.40
68217;DHT22;55037;52.354;4.992;2023-06-19T00:09:36;25.50;38.30
68217;DHT22;55037;52.354;4.992;2023-06-19T00:12:04;25.50;38.10
68217;DHT22;55037;52.354;4.992;2023-06-19T00:14:31;25.50;38.10
68217;DHT22;55037;52.354;4.992;2023-06-19T00:16:59;25.50;38.20
68217;DHT22;55037;52.354;4.992;2023-06-19T00:19:28;25.50;38.60
68217;DHT22;55037;52.354;4.992;2023-06-19T00:21:55;25.40;38.70
68217;DHT22;55037;52.354;4.992;2023-06-19T00:24:24;25.40;38.70
68217;DHT22;55037;52.354;4.992;2023-06-19T00:26:51;25.30;39.10
68217;DHT22;55037;52.354;4.992;2023-06-19T00:29:19;25.20;39.20
68217;DHT22;55037;52.354;4.992;2023-06-19T00:31:46;25.20;39.30
68217;DHT22;55037;52.354;4.992;2023-06-19T00:34:14;25.10;39.40
68217;DHT22;55037;52.354;4.992;2023-06-19T00:36:42;25.10;39.60
68217;DHT22;55037;52.354;4.992;2023-06-19T00:39:09;25.00;40.00
68217;DHT22;55037;52.354;4.992;2023-06-19T00:41:37;25.00;40.40
68217;DHT22;55037;52.354;4.992;2023-06-19T00:44:04;24.90;40.80
68217;DHT22;55037;52.354;4.992;2023-06-19T00:46:32;24.90;41.70
68217;DHT22;55037;52.354;4.992;2023-06-19T00:48:59;24.80;42.10
68217;DHT22;55037;52.354;4.992;2023-06-19T00:51:26;24.70;42.50
68217;DHT22;55037;52.354;4.992;2023-06-19T00:53:54;24.70;43.70
68217;DHT22;55037;52.354;4.992;2023-06-19T00:56:21;24.60;44.30
68217;DHT22;55037;52.354;4.992;2023-06-19T00:58:51;24.50;44.70
68217;DHT22;55037;52.354;4.992;2023-06-19T01:01:21;24.40;45.50
68217;DHT22;55037;52.354;4.992;2023-06-19T01:03:48;24.30;45.50
68217;DHT22;55037;52.354;4.992;2023-06-19T01:06:22;24.30;46.00
68217;DHT22;55037;52.354;4.992;2023-06-19T01:08:58;24.20;47.40
68217;DHT22;55037;52.354;4.992;2023-06-19T01:11:30;24.10;47.50
68217;DHT22;55037;52.354;4.992;2023-06-19T01:14:03;24.00;48.00
68217;DHT22;55037;52.354;4.992;2023-06-19T01:16:33;23.90;49.10
68217;DHT22;55037;52.354;4.992;2023-06-19T01:19:03;23.80;49.50
68217;DHT22;55037;52.354;4.992;2023-06-19T01:21:33;23.80;50.10
68217;DHT22;55037;52.354;4.992;2023-06-19T01:24:00;23.70;51.00
68217;DHT22;55037;52.354;4.992;2023-06-19T01:26:28;23.60;51.90
68217;DHT22;55037;52.354;4.992;2023-06-19T01:28:57;23.50;52.50
68217;DHT22;55037;52.354;4.992;2023-06-19T01:32:02;23.40;53.20
68217;DHT22;55037;52.354;4.992;2023-06-19T01:34:27;23.30;53.50
68217;DHT22;55037;52.354;4.992;2023-06-19T01:36:57;23.30;54.30
68217;DHT22;55037;52.354;4.992;2023-06-19T01:39:25;23.20;55.50
68217;DHT22;55037;52.354;4.992;2023-06-19T01:41:52;23.10;56.00
68217;DHT22;55037;52.354;4.992;2023-06-19T01:44:21;23.00;57.30
68217;DHT22;55037;52.354;4.992;2023-06-19T01:46:50;22.90;57.60
68217;DHT22;55037;52.354;4.992;2023-06-19T01:49:18;22.90;58.00
68217;DHT22;55037;52.354;4.992;2023-06-19T01:51:46;22.90;58.60
68217;DHT22;55037;52.354;4.992;2023-06-19T01:54:13;22.90;59.00
68217;DHT22;55037;52.354;4.992;2023-06-19T01:56:40;22.90;59.20
68217;DHT22;55037;52.354;4.992;2023-06-19T01:59:07;22.90;59.40
68217;DHT22;55037;52.354;4.992;2023-06-19T02:01:35;22.90;59.50
68217;DHT22;55037;52.354;4.992;2023-06-19T02:04:03;22.90;59.20
68217;DHT22;55037;52.354;4.992;2023-06-19T02:06:31;22.80;60.30
68217;DHT22;55037;52.354;4.992;2023-06-19T02:08:58;22.80;60.20
68217;DHT22;55037;52.354;4.992;2023-06-19T02:11:26;22.80;61.00
68217;DHT22;55037;52.354;4.992;2023-06-19T02:13:54;22.70;61.50
68217;DHT22;55037;52.354;4.992;2023-06-19T02:16:21;22.60;62.10
68217;DHT22;55037;52.354;4.992;2023-06-19T02:18:49;22.50;62.80
68217;DHT22;55037;52.354;4.992;2023-06-19T02:21:16;22.40;63.70
68217;DHT22;55037;52.354;4.992;2023-06-19T02:23:43;22.30;64.20
68217;DHT22;55037;52.354;4.992;2023-06-19T02:26:10;22.30;64.50
68217;DHT22;55037;52.354;4.992;2023-06-19T02:28:38;22.30;65.00
68217;DHT22;55037;52.354;4.992;2023-06-19T02:31:07;22.40;65.10
68217;DHT22;55037;52.354;4.992;2023-06-19T02:33:34;22.40;65.60
68217;DHT22;55037;52.354;4.992;2023-06-19T02:36:01;22.30;65.80
68217;DHT22;55037;52.354;4.992;2023-06-19T02:38:28;22.30;65.90
68217;DHT22;55037;52.354;4.992;2023-06-19T02:40:56;22.40;65.90
68217;DHT22;55037;52.354;4.992;2023-06-19T02:43:30;22.40;66.00
68217;DHT22;55037;52.354;4.992;2023-06-19T02:45:57;22.40;66.00
68217;DHT22;55037;52.354;4.992;2023-06-19T02:48:24;22.40;66.10
68217;DHT22;55037;52.354;4.992;2023-06-19T02:50:53;22.40;66.20
68217;DHT22;55037;52.354;4.992;2023-06-19T02:53:20;22.40;66.10
68217;DHT22;55037;52.354;4.992;2023-06-19T02:55:48;22.50;66.20
68217;DHT22;55037;52.354;4.992;2023-06-19T02:58:15;22.40;66.30
68217;DHT22;55037;52.354;4.992;2023-06-19T03:00:43;22.40;65.70
68217;DHT22;55037;52.354;4.992;2023-06-19T03:03:10;22.40;66.50
68217;DHT22;55037;52.354;4.992;2023-06-19T03:05:38;22.40;66.60
68217;DHT22;55037;52.354;4.992;2023-06-19T03:08:06;22.40;66.30
68217;DHT22;55037;52.354;4.992;2023-06-19T03:10:34;22.50;66.90
68217;DHT22;55037;52.354;4.992;2023-06-19T03:13:01;22.50;66.60
68217;DHT22;55037;52.354;4.992;2023-06-19T03:15:28;22.50;66.90
68217;DHT22;55037;52.354;4.992;2023-06-19T03:17:56;22.40;67.30
68217;DHT22;55037;52.354;4.992;2023-06-19T03:20:24;22.40;67.30
68217;DHT22;55037;52.354;4.992;2023-06-19T03:22:56;22.40;67.70
68217;DHT22;55037;52.354;4.992;2023-06-19T03:25:24;22.40;68.00
68217;DHT22;55037;52.354;4.992;2023-06-19T03:27:52;22.30;68.30
68217;DHT22;55037;52.354;4.992;2023-06-19T03:30:19;22.30;68.50
68217;DHT22;55037;52.354;4.992;2023-06-19T03:32:50;22.30;68.70
68217;DHT22;55037;52.354;4.992;2023-06-19T03:35:35;22.20;68.70
68217;DHT22;55037;52.354;4.992;2023-06-19T03:38:03;22.30;68.70
68217;DHT22;55037;52.354;4.992;2023-06-19T03:40:30;22.30;69.00
68217;DHT22;55037;52.354;4.992;2023-06-19T03:43:02;22.30;69.20
68217;DHT22;55037;52.354;4.992;2023-06-19T03:45:30;22.20;69.50
68217;DHT22;55037;52.354;4.992;2023-06-19T03:47:57;22.20;69.70
68217;DHT22;55037;52.354;4.992;2023-06-19T03:50:25;22.20;69.80
68217;DHT22;55037;52.354;4.992;2023-06-19T03:52:54;22.00;70.50
68217;DHT22;55037;52.354;4.992;2023-06-19T03:55:21;21.80;72.10
68217;DHT22;55037;52.354;4.992;2023-06-19T03:57:49;21.60;72.00
68217;DHT22;55037;52.354;4.992;2023-06-19T04:00:17;21.30;73.50
68217;DHT22;55037;52.354;4.992;2023-06-19T04:02:48;21.20;74.60
68217;DHT22;55037;52.354;4.992;2023-06-19T04:05:16;21.00;75.40
68217;DHT22;55037;52.354;4.992;2023-06-19T04:07:43;21.00;76.70
68217;DHT22;55037;52.354;4.992;2023-06-19T04:10:14;20.80;77.60
68217;DHT22;55037;52.354;4.992;2023-06-19T04:12:41;20.80;78.30
68217;DHT22;55037;52.354;4.992;2023-06-19T04:15:09;20.70;78.80
68217;DHT22;55037;52.354;4.992;2023-06-19T04:17:37;20.70;79.30
68217;DHT22;55037;52.354;4.992;2023-06-19T04:20:04;20.70;79.90
68217;DHT22;55037;52.354;4.992;2023-06-19T04:22:47;20.70;80.50
68217;DHT22;55037;52.354;4.992;2023-06-19T04:25:14;20.60;80.90
68217;DHT22;55037;52.354;4.992;2023-06-19T04:27:42;20.60;81.30
68217;DHT22;55037;52.354;4.992;2023-06-19T04:30:12;20.60;82.30
68217;DHT22;55037;52.354;4.992;2023-06-19T04:32:39;20.50;82.60
68217;DHT22;55037;52.354;4.992;2023-06-19T04:35:09;20.50;83.10
68217;DHT22;55037;52.354;4.992;2023-06-19T04:37:36;20.40;83.20
68217;DHT22;55037;52.354;4.992;2023-06-19T04:40:04;20.40;83.30
68217;DHT22;55037;52.354;4.992;2023-06-19T04:42:34;20.40;83.60
68217;DHT22;55037;52.354;4.992;2023-06-19T04:45:01;20.50;83.60
68217;DHT22;55037;52.354;4.992;2023-06-19T04:47:29;20.40;84.00
68217;DHT22;55037;52.354;4.992;2023-06-19T04:50:10;20.40;84.40
68217;DHT22;55037;52.354;4.992;2023-06-19T04:52:37;20.40;84.40
68217;DHT22;55037;52.354;4.992;2023-06-19T04:55:05;20.40;84.40
68217;DHT22;55037;52.354;4.992;2023-06-19T04:57:36;20.50;84.50
68217;DHT22;55037;52.354;4.992;2023-06-19T05:00:05;20.50;84.50
68217;DHT22;55037;52.354;4.992;2023-06-19T05:02:33;20.60;84.20
68217;DHT22;55037;52.354;4.992;2023-06-19T05:05:02;20.60;83.70
68217;DHT22;55037;52.354;4.992;2023-06-19T05:07:30;20.70;83.70
68217;DHT22;55037;52.354;4.992;2023-06-19T05:09:58;20.70;83.50
68217;DHT22;55037;52.354;4.992;2023-06-19T05:12:26;20.70;83.30
68217;DHT22;55037;52.354;4.992;2023-06-19T05:14:53;20.80;84.20
68217;DHT22;55037;52.354;4.992;2023-06-19T05:17:21;20.70;83.20
68217;DHT22;55037;52.354;4.992;2023-06-19T05:19:51;20.70;83.10
68217;DHT22;55037;52.354;4.992;2023-06-19T05:22:18;20.70;83.20
68217;DHT22;55037;52.354;4.992;2023-06-19T05:24:48;20.70;83.00
68217;DHT22;55037;52.354;4.992;2023-06-19T05:27:15;20.70;82.80
68217;DHT22;55037;52.354;4.992;2023-06-19T05:29:43;20.70;83.00
68217;DHT22;55037;52.354;4.992;2023-06-19T05:32:10;20.70;82.70
68217;DHT22;55037;52.354;4.992;2023-06-19T05:34:37;20.70;83.60
68217;DHT22;55037;52.354;4.992;2023-06-19T05:37:05;20.70;82.80
68217;DHT22;55037;52.354;4.992;2023-06-19T05:39:32;20.80;82.70
68217;DHT22;55037;52.354;4.992;2023-06-19T05:41:59;20.80;82.70
68217;DHT22;55037;52.354;4.992;2023-06-19T05:44:27;20.80;82.10
68217;DHT22;55037;52.354;4.992;2023-06-19T05:46:54;20.80;81.80
68217;DHT22;55037;52.354;4.992;2023-06-19T05:49:21;20.80;81.60
68217;DHT22;55037;52.354;4.992;2023-06-19T05:51:48;20.80;81.70
68217;DHT22;55037;52.354;4.992;2023-06-19T05:54:16;20.80;81.50
68217;DHT22;55037;52.354;4.992;2023-06-19T05:56:44;20.80;81.70
68217;DHT22;55037;52.354;4.992;2023-06-19T05:59:12;20.90;81.40
68217;DHT22;55037;52.354;4.992;2023-06-19T06:01:41;20.90;81.40
68217;DHT22;55037;52.354;4.992;2023-06-19T06:04:09;20.90;81.00
68217;DHT22;55037;52.354;4.992;2023-06-19T06:06:39;20.90;81.20
68217;DHT22;55037;52.354;4.992;2023-06-19T06:09:06;20.90;81.00
68217;DHT22;55037;52.354;4.992;2023-06-19T06:11:36;20.90;80.90
68217;DHT22;55037;52.354;4.992;2023-06-19T06:14:04;20.90;80.60
68217;DHT22;55037;52.354;4.992;2023-06-19T06:16:31;20.80;80.60
68217;DHT22;55037;52.354;4.992;2023-06-19T06:18:59;20.80;80.60
68217;DHT22;55037;52.354;4.992;2023-06-19T06:21:26;20.80;80.40
68217;DHT22;55037;52.354;4.992;2023-06-19T06:23:53;20.80;80.20
68217;DHT22;55037;52.354;4.992;2023-06-19T06:26:22;20.80;80.30
68217;DHT22;55037;52.354;4.992;2023-06-19T06:28:50;20.70;80.20
68217;DHT22;55037;52.354;4.992;2023-06-19T06:31:17;20.90;80.80
68217;DHT22;55037;52.354;4.992;2023-06-19T06:33:44;20.90;79.90
68217;DHT22;55037;52.354;4.992;2023-06-19T06:36:14;20.90;78.90
68217;DHT22;55037;52.354;4.992;2023-06-19T06:38:56;20.90;78.60
68217;DHT22;55037;52.354;4.992;2023-06-19T06:41:23;20.80;78.60
68217;DHT22;55037;52.354;4.992;2023-06-19T06:43:50;20.80;78.10
68217;DHT22;55037;52.354;4.992;2023-06-19T06:46:17;20.90;78.00
68217;DHT22;55037;52.354;4.992;2023-06-19T06:48:44;20.80;77.00
68217;DHT22;55037;52.354;4.992;2023-06-19T06:51:12;20.90;77.10
68217;DHT22;55037;52.354;4.992;2023-06-19T06:53:39;20.90;76.90
68217;DHT22;55037;52.354;4.992;2023-06-19T06:56:06;21.00;76.70
68217;DHT22;55037;52.354;4.992;2023-06-19T06:58:33;21.10;76.60
68217;DHT22;55037;52.354;4.992;2023-06-19T07:01:03;21.00;75.20
68217;DHT22;55037;52.354;4.992;2023-06-19T07:03:30;20.90;75.10
68217;DHT22;55037;52.354;4.992;2023-06-19T07:05:59;20.60;75.30
68217;DHT22;55037;52.354;4.992;2023-06-19T07:08:26;20.50;76.10
68217;DHT22;55037;52.354;4.992;2023-06-19T07:10:54;20.40;75.30
68217;DHT22;55037;52.354;4.992;2023-06-19T07:13:21;20.40;76.20
68217;DHT22;55037;52.354;4.992;2023-06-19T07:15:48;20.40;76.40
68217;DHT22;55037;52.354;4.992;2023-06-19T07:18:16;20.40;76.40
68217;DHT22;55037;52.354;4.992;2023-06-19T07:20:43;20.40;76.70
68217;DHT22;55037;52.354;4.992;2023-06-19T07:23:10;20.50;76.80
68217;DHT22;55037;52.354;4.992;2023-06-19T07:25:38;20.60;75.70
68217;DHT22;55037;52.354;4.992;2023-06-19T07:28:05;20.60;75.60
68217;DHT22;55037;52.354;4.992;2023-06-19T07:30:32;20.60;75.80
68217;DHT22;55037;52.354;4.992;2023-06-19T07:32:59;20.70;75.70
68217;DHT22;55037;52.354;4.992;2023-06-19T07:35:27;20.90;75.30
68217;DHT22;55037;52.354;4.992;2023-06-19T07:37:54;21.00;75.00
68217;DHT22;55037;52.354;4.992;2023-06-19T07:40:21;21.20;74.80
68217;DHT22;55037;52.354;4.992;2023-06-19T07:42:49;21.40;74.30
68217;DHT22;55037;52.354;4.992;2023-06-19T07:45:16;21.60;73.80
68217;DHT22;55037;52.354;4.992;2023-06-19T07:47:53;21.90;73.00
68217;DHT22;55037;52.354;4.992;2023-06-19T07:50:20;22.00;71.70
68217;DHT22;55037;52.354;4.992;2023-06-19T07:52:50;22.00;71.30
68217;DHT22;55037;52.354;4.992;2023-06-19T07:55:17;22.00;70.70
68217;DHT22;55037;52.354;4.992;2023-06-19T07:57:44;21.90;70.70
68217;DHT22;55037;52.354;4.992;2023-06-19T08:00:12;22.00;70.60
68217;DHT22;55037;52.354;4.992;2023-06-19T08:02:41;22.00;70.60
68217;DHT22;55037;52.354;4.992;2023-06-19T08:05:09;22.40;70.00
68217;DHT22;55037;52.354;4.992;2023-06-19T08:07:37;22.60;68.90
68217;DHT22;55037;52.354;4.992;2023-06-19T08:10:05;22.70;68.30
68217;DHT22;55037;52.354;4.992;2023-06-19T08:12:43;22.90;67.80
68217;DHT22;55037;52.354;4.992;2023-06-19T08:15:12;22.90;66.90
68217;DHT22;55037;52.354;4.992;2023-06-19T08:17:41;22.70;66.60
68217;DHT22;55037;52.354;4.992;2023-06-19T08:20:09;22.70;66.80
68217;DHT22;55037;52.354;4.992;2023-06-19T08:22:37;22.80;66.70
68217;DHT22;55037;52.354;4.992;2023-06-19T08:25:04;22.90;66.00
68217;DHT22;55037;52.354;4.992;2023-06-19T08:27:31;23.00;66.30
68217;DHT22;55037;52.354;4.992;2023-06-19T08:29:59;23.30;65.90
68217;DHT22;55037;52.354;4.992;2023-06-19T08:32:26;23.30;65.10
68217;DHT22;55037;52.354;4.992;2023-06-19T08:34:54;23.20;63.90
68217;DHT22;55037;52.354;4.992;2023-06-19T08:37:21;23.20;64.50
68217;DHT22;55037;52.354;4.992;2023-06-19T08:39:48;23.50;64.00
68217;DHT22;55037;52.354;4.992;2023-06-19T08:42:16;23.80;62.70
68217;DHT22;55037;52.354;4.992;2023-06-19T08:44:43;23.80;62.10
68217;DHT22;55037;52.354;4.992;2023-06-19T08:47:10;23.80;61.70
68217;DHT22;55037;52.354;4.992;2023-06-19T08:49:39;23.70;61.60
68217;DHT22;55037;52.354;4.992;2023-06-19T08:52:07;23.60;61.70
68217;DHT22;55037;52.354;4.992;2023-06-19T08:54:34;23.70;61.80
68217;DHT22;55037;52.354;4.992;2023-06-19T08:57:10;23.90;61.70
68217;DHT22;55037;52.354;4.992;2023-06-19T08:59:39;24.40;61.60
68217;DHT22;55037;52.354;4.992;2023-06-19T09:02:14;24.70;58.90
68217;DHT22;55037;52.354;4.992;2023-06-19T09:04:42;24.80;59.00
68217;DHT22;55037;52.354;4.992;2023-06-19T09:07:09;24.90;58.30
68217;DHT22;55037;52.354;4.992;2023-06-19T09:09:46;25.00;58.10
68217;DHT22;55037;52.354;4.992;2023-06-19T09:12:14;25.30;57.50
68217;DHT22;55037;52.354;4.992;2023-06-19T09:14:45;25.40;56.90
68217;DHT22;55037;52.354;4.992;2023-06-19T09:17:17;25.50;56.30
68217;DHT22;55037;52.354;4.992;2023-06-19T09:19:53;25.40;56.20
68217;DHT22;55037;52.354;4.992;2023-06-19T09:22:23;25.80;55.90
68217;DHT22;55037;52.354;4.992;2023-06-19T09:24:52;25.90;53.20
68217;DHT22;55037;52.354;4.992;2023-06-19T09:27:19;25.80;54.30
68217;DHT22;55037;52.354;4.992;2023-06-19T09:29:49;26.40;53.10
68217;DHT22;55037;52.354;4.992;2023-06-19T09:32:22;26.30;51.30
68217;DHT22;55037;52.354;4.992;2023-06-19T09:34:54;26.10;52.60
68217;DHT22;55037;52.354;4.992;2023-06-19T09:37:24;26.00;51.90
68217;DHT22;55037;52.354;4.992;2023-06-19T09:39:59;25.90;52.10
68217;DHT22;55037;52.354;4.992;2023-06-19T09:42:32;26.00;52.60
68217;DHT22;55037;52.354;4.992;2023-06-19T09:45:02;26.40;52.00
68217;DHT22;55037;52.354;4.992;2023-06-19T09:47:43;26.50;50.30
68217;DHT22;55037;52.354;4.992;2023-06-19T09:50:16;26.40;50.10
68217;DHT22;55037;52.354;4.992;2023-06-19T09:52:47;26.00;49.80
68217;DHT22;55037;52.354;4.992;2023-06-19T09:55:19;25.60;51.10
68217;DHT22;55037;52.354;4.992;2023-06-19T09:57:46;25.70;52.40
68217;DHT22;55037;52.354;4.992;2023-06-19T10:00:15;25.80;52.00
68217;DHT22;55037;52.354;4.992;2023-06-19T10:02:49;26.00;51.40
68217;DHT22;55037;52.354;4.992;2023-06-19T10:05:17;26.00;50.00
68217;DHT22;55037;52.354;4.992;2023-06-19T10:07:54;25.70;50.40
68217;DHT22;55037;52.354;4.992;2023-06-19T10:10:27;25.60;52.50
68217;DHT22;55037;52.354;4.992;2023-06-19T10:12:59;25.80;51.90
68217;DHT22;55037;52.354;4.992;2023-06-19T10:15:29;26.80;53.50
68217;DHT22;55037;52.354;4.992;2023-06-19T10:18:00;28.80;47.20
68217;DHT22;55037;52.354;4.992;2023-06-19T10:20:30;29.80;42.70
68217;DHT22;55037;52.354;4.992;2023-06-19T10:25:36;29.80;40.70
68217;DHT22;55037;52.354;4.992;2023-06-19T10:28:04;29.20;40.30
68217;DHT22;55037;52.354;4.992;2023-06-19T10:30:42;28.00;42.30
68217;DHT22;55037;52.354;4.992;2023-06-19T10:33:09;28.00;43.20
68217;DHT22;55037;52.354;4.992;2023-06-19T10:35:40;28.40;44.20
68217;DHT22;55037;52.354;4.992;2023-06-19T10:38:08;29.00;41.90
68217;DHT22;55037;52.354;4.992;2023-06-19T10:40:37;29.00;41.20
68217;DHT22;55037;52.354;4.992;2023-06-19T10:43:04;29.20;39.40
68217;DHT22;55037;52.354;4.992;2023-06-19T10:45:32;30.00;40.00
68217;DHT22;55037;52.354;4.992;2023-06-19T10:48:03;30.70;37.10
68217;DHT22;55037;52.354;4.992;2023-06-19T10:50:36;31.00;35.50
68217;DHT22;55037;52.354;4.992;2023-06-19T10:53:05;30.50;35.50
68217;DHT22;55037;52.354;4.992;2023-06-19T10:55:32;30.00;36.50
68217;DHT22;55037;52.354;4.992;2023-06-19T10:58:02;30.70;37.40
68217;DHT22;55037;52.354;4.992;2023-06-19T11:00:32;31.60;35.00
68217;DHT22;55037;52.354;4.992;2023-06-19T11:03:00;31.90;33.30
68217;DHT22;55037;52.354;4.992;2023-06-19T11:05:27;31.90;32.20
68217;DHT22;55037;52.354;4.992;2023-06-19T11:07:57;32.20;32.40
68217;DHT22;55037;52.354;4.992;2023-06-19T11:10:27;33.20;31.50
68217;DHT22;55037;52.354;4.992;2023-06-19T11:12:57;33.40;30.10
68217;DHT22;55037;52.354;4.992;2023-06-19T11:15:31;32.60;30.00
68217;DHT22;55037;52.354;4.992;2023-06-19T11:18:00;32.20;30.80
68217;DHT22;55037;52.354;4.992;2023-06-19T11:20:28;32.70;30.40
68217;DHT22;55037;52.354;4.992;2023-06-19T11:22:59;33.90;29.20
68217;DHT22;55037;52.354;4.992;2023-06-19T11:25:37;35.50;27.80
68217;DHT22;55037;52.354;4.992;2023-06-19T11:28:11;36.50;26.10
68217;DHT22;55037;52.354;4.992;2023-06-19T11:30:41;37.30;25.00
68217;DHT22;55037;52.354;4.992;2023-06-19T11:33:19;37.50;24.50
68217;DHT22;55037;52.354;4.992;2023-06-19T11:35:53;37.80;23.60
68217;DHT22;55037;52.354;4.992;2023-06-19T11:38:27;37.50;23.40
68217;DHT22;55037;52.354;4.992;2023-06-19T11:40:56;37.70;23.50
68217;DHT22;55037;52.354;4.992;2023-06-19T11:43:31;38.30;23.40
68217;DHT22;55037;52.354;4.992;2023-06-19T11:46:05;38.40;23.00
68217;DHT22;55037;52.354;4.992;2023-06-19T11:48:36;38.30;22.90
68217;DHT22;55037;52.354;4.992;2023-06-19T11:51:04;38.60;22.60
68217;DHT22;55037;52.354;4.992;2023-06-19T11:53:33;39.20;21.70
68217;DHT22;55037;52.354;4.992;2023-06-19T11:56:00;38.50;21.20
68217;DHT22;55037;52.354;4.992;2023-06-19T11:58:28;37.70;21.80
68217;DHT22;55037;52.354;4.992;2023-06-19T12:00:56;37.10;22.70
68217;DHT22;55037;52.354;4.992;2023-06-19T12:03:23;36.50;23.80
68217;DHT22;55037;52.354;4.992;2023-06-19T12:05:51;37.00;23.70
68217;DHT22;55037;52.354;4.992;2023-06-19T12:08:18;38.00;22.90
68217;DHT22;55037;52.354;4.992;2023-06-19T12:10:45;38.30;21.70
68217;DHT22;55037;52.354;4.992;2023-06-19T12:13:13;38.00;21.70
68217;DHT22;55037;52.354;4.992;2023-06-19T12:15:40;38.10;21.90
68217;DHT22;55037;52.354;4.992;2023-06-19T12:18:07;38.40;22.00
68217;DHT22;55037;52.354;4.992;2023-06-19T12:20:35;39.50;21.50
68217;DHT22;55037;52.354;4.992;2023-06-19T12:23:03;39.00;20.60
68217;DHT22;55037;52.354;4.992;2023-06-19T12:25:30;38.90;21.00
68217;DHT22;55037;52.354;4.992;2023-06-19T12:27:57;39.20;20.90
68217;DHT22;55037;52.354;4.992;2023-06-19T12:30:24;38.90;20.60
68217;DHT22;55037;52.354;4.992;2023-06-19T12:32:52;36.80;21.90
68217;DHT22;55037;52.354;4.992;2023-06-19T12:35:19;34.60;24.30
68217;DHT22;55037;52.354;4.992;2023-06-19T12:37:47;34.30;24.90
68217;DHT22;55037;52.354;4.992;2023-06-19T12:40:15;35.10;24.70
68217;DHT22;55037;52.354;4.992;2023-06-19T12:42:43;36.40;23.70
68217;DHT22;55037;52.354;4.992;2023-06-19T12:45:11;36.30;23.30
68217;DHT22;55037;52.354;4.992;2023-06-19T12:47:38;35.50;23.20
68217;DHT22;55037;52.354;4.992;2023-06-19T12:50:06;35.50;23.50
68217;DHT22;55037;52.354;4.992;2023-06-19T12:52:33;36.30;23.00
68217;DHT22;55037;52.354;4.992;2023-06-19T12:55:00;37.30;22.20
68217;DHT22;55037;52.354;4.992;2023-06-19T12:57:29;38.10;21.60
68217;DHT22;55037;52.354;4.992;2023-06-19T12:59:56;38.40;21.00
68217;DHT22;55037;52.354;4.992;2023-06-19T13:02:23;37.50;21.10
68217;DHT22;55037;52.354;4.992;2023-06-19T13:04:52;35.90;22.70
68217;DHT22;55037;52.354;4.992;2023-06-19T13:07:19;35.90;23.20
68217;DHT22;55037;52.354;4.992;2023-06-19T13:09:46;35.30;22.90
68217;DHT22;55037;52.354;4.992;2023-06-19T13:12:13;35.60;23.20
68217;DHT22;55037;52.354;4.992;2023-06-19T13:14:41;36.00;22.50
68217;DHT22;55037;52.354;4.992;2023-06-19T13:17:09;36.10;22.50
68217;DHT22;55037;52.354;4.992;2023-06-19T13:19:36;36.10;22.60
68217;DHT22;55037;52.354;4.992;2023-06-19T13:22:04;36.60;22.40
68217;DHT22;55037;52.354;4.992;2023-06-19T13:24:31;37.10;22.10
68217;DHT22;55037;52.354;4.992;2023-06-19T13:26:58;37.40;21.60
68217;DHT22;55037;52.354;4.992;2023-06-19T13:29:26;37.30;21.30
68217;DHT22;55037;52.354;4.992;2023-06-19T13:31:53;37.00;21.40
68217;DHT22;55037;52.354;4.992;2023-06-19T13:34:20;36.40;22.10
68217;DHT22;55037;52.354;4.992;2023-06-19T13:36:49;36.80;21.90
68217;DHT22;55037;52.354;4.992;2023-06-19T13:39:16;36.70;21.40
68217;DHT22;55037;52.354;4.992;2023-06-19T13:41:46;36.50;21.70
68217;DHT22;55037;52.354;4.992;2023-06-19T13:44:14;37.30;21.90
68217;DHT22;55037;52.354;4.992;2023-06-19T13:46:42;37.80;21.10
68217;DHT22;55037;52.354;4.992;2023-06-19T13:49:09;38.10;20.80
68217;DHT22;55037;52.354;4.992;2023-06-19T13:51:37;38.10;20.30
68217;DHT22;55037;52.354;4.992;2023-06-19T13:54:05;37.60;20.50
68217;DHT22;55037;52.354;4.992;2023-06-19T13:56:32;36.70;21.30
68217;DHT22;55037;52.354;4.992;2023-06-19T13:59:00;36.80;21.40
68217;DHT22;55037;52.354;4.992;2023-06-19T14:01:27;36.70;21.40
68217;DHT22;55037;52.354;4.992;2023-06-19T14:03:58;36.40;21.40
68217;DHT22;55037;52.354;4.992;2023-06-19T14:06:25;36.30;21.40
68217;DHT22;55037;52.354;4.992;2023-06-19T14:08:52;36.10;21.60
68217;DHT22;55037;52.354;4.992;2023-06-19T14:11:20;35.90;22.10
68217;DHT22;55037;52.354;4.992;2023-06-19T14:13:47;36.00;22.10
68217;DHT22;55037;52.354;4.992;2023-06-19T14:16:15;35.80;21.90
68217;DHT22;55037;52.354;4.992;2023-06-19T14:18:43;35.10;22.50
68217;DHT22;55037;52.354;4.992;2023-06-19T14:21:10;34.90;22.90
68217;DHT22;55037;52.354;4.992;2023-06-19T14:23:37;35.00;22.90
68217;DHT22;55037;52.354;4.992;2023-06-19T14:26:07;35.40;22.70
68217;DHT22;55037;52.354;4.992;2023-06-19T14:28:34;35.80;22.60
68217;DHT22;55037;52.354;4.992;2023-06-19T14:31:01;36.30;22.10
68217;DHT22;55037;52.354;4.992;2023-06-19T14:33:29;36.80;22.10
68217;DHT22;55037;52.354;4.992;2023-06-19T14:35:56;37.70;21.50
68217;DHT22;55037;52.354;4.992;2023-06-19T14:38:24;38.10;20.80
68217;DHT22;55037;52.354;4.992;2023-06-19T14:40:54;37.60;20.90
68217;DHT22;55037;52.354;4.992;2023-06-19T14:43:24;36.90;21.50
68217;DHT22;55037;52.354;4.992;2023-06-19T14:45:51;36.20;22.20
68217;DHT22;55037;52.354;4.992;2023-06-19T14:48:19;36.20;22.60
68217;DHT22;55037;52.354;4.992;2023-06-19T14:50:46;36.40;22.50
68217;DHT22;55037;52.354;4.992;2023-06-19T14:53:14;36.20;22.30
68217;DHT22;55037;52.354;4.992;2023-06-19T14:55:41;36.00;22.60
68217;DHT22;55037;52.354;4.992;2023-06-19T14:58:13;36.00;22.60
68217;DHT22;55037;52.354;4.992;2023-06-19T15:00:41;35.70;22.70
68217;DHT22;55037;52.354;4.992;2023-06-19T15:03:09;35.40;23.00
68217;DHT22;55037;52.354;4.992;2023-06-19T15:05:36;35.40;23.00
68217;DHT22;55037;52.354;4.992;2023-06-19T15:08:03;35.30;23.00
68217;DHT22;55037;52.354;4.992;2023-06-19T15:10:32;35.30;23.40
68217;DHT22;55037;52.354;4.992;2023-06-19T15:12:59;35.30;23.20
68217;DHT22;55037;52.354;4.992;2023-06-19T15:15:27;35.10;23.00
68217;DHT22;55037;52.354;4.992;2023-06-19T15:17:54;34.60;23.20
68217;DHT22;55037;52.354;4.992;2023-06-19T15:20:22;34.20;23.60
68217;DHT22;55037;52.354;4.992;2023-06-19T15:22:50;33.90;23.90
68217;DHT22;55037;52.354;4.992;2023-06-19T15:25:17;33.80;24.20
68217;DHT22;55037;52.354;4.992;2023-06-19T15:27:44;33.70;24.30
68217;DHT22;55037;52.354;4.992;2023-06-19T15:30:12;33.60;24.40
68217;DHT22;55037;52.354;4.992;2023-06-19T15:32:39;33.90;24.10
68217;DHT22;55037;52.354;4.992;2023-06-19T15:35:07;34.00;23.90
68217;DHT22;55037;52.354;4.992;2023-06-19T15:37:34;33.80;23.60
68217;DHT22;55037;52.354;4.992;2023-06-19T15:40:02;33.80;23.60
68217;DHT22;55037;52.354;4.992;2023-06-19T15:42:29;34.10;23.70